sensor_id;sensor_type;location;lat;lon;timestamp;P1;durP1;ratioP1;P2;durP2;ratioP2
3815;SDS011;1923;48.154;11.536;2024-01-15T00:00:39;8.20;;;4.13;;
3815;SDS011;1923;48.154;11.536;2024-01-15T00:03:07;11.93;;;5.17;;
3815;SDS011;1923;48.154;11.536;2024-01-15T00:05:35;11.03;;;5.50;;
3815;SDS011;1923;48.154;11.536;2024-01-15T00:08:06;12.37;;;4.83;;
3815;SDS011;1923;48.154;11.536;2024-01-15T00:10:34;11.40;;;4.43;;
3815;SDS011;1923;48.154;11.536;2024-01-15T00:13:02;9.30;;;5.07;;
3815;SDS011;1923;48.154;11.536;2024-01-15T00:15:30;13.47;;;5.10;;
3815;SDS011;1923;48.154;11.536;2024-01-15T00:17:58;11.80;;;4.60;;
3815;SDS011;1923;48.154;11.536;2024-01-15T00:20:26;8.40;;;5.00;;
3815;SDS011;1923;48.154;11.536;2024-01-15T00:22:56;8.50;;;4.67;;
3815;SDS011;1923;48.154;11.536;2024-01-15T00:25:26;10.60;;;4.83;;
3815;SDS011;1923;48.154;11.536;2024-01-15T00:27:54;15.97;;;5.90;;
3815;SDS011;1923;48.154;11.536;2024-01-15T00:30:22;12.00;;;5.70;;
3815;SDS011;1923;48.154;11.536;2024-01-15T00:32:50;12.23;;;5.23;;
3815;SDS011;1923;48.154;11.536;2024-01-15T00:35:18;10.20;;;5.30;;
3815;SDS011;1923;48.154;11.536;2024-01-15T00:37:46;9.80;;;5.30;;
3815;SDS011;1923;48.154;11.536;2024-01-15T00:40:14;13.60;;;5.55;;
3815;SDS011;1923;48.154;11.536;2024-01-15T00:42:44;10.50;;;5.47;;
3815;SDS011;1923;48.154;11.536;2024-01-15T00:45:12;13.87;;;5.70;;
3815;SDS011;1923;48.154;11.536;2024-01-15T00:47:40;11.60;;;5.67;;
3815;SDS011;1923;48.154;11.536;2024-01-15T00:50:08;11.93;;;5.57;;
3815;SDS011;1923;48.154;11.536;2024-01-15T00:52:37;10.40;;;4.90;;
3815;SDS011;1923;48.154;11.536;2024-01-15T00:55:05;14.57;;;6.20;;
3815;SDS011;1923;48.154;11.536;2024-01-15T00:57:33;14.40;;;7.07;;
3815;SDS011;1923;48.154;11.536;2024-01-15T01:00:03;10.60;;;5.40;;
3815;SDS011;1923;48.154;11.536;2024-01-15T01:02:33;15.27;;;7.30;;
3815;SDS011;1923;48.154;11.536;2024-01-15T01:05:01;13.03;;;7.03;;
3815;SDS011;1923;48.154;11.536;2024-01-15T01:07:29;15.33;;;7.67;;
3815;SDS011;1923;48.154;11.536;2024-01-15T01:09:57;14.90;;;7.40;;
3815;SDS011;1923;48.154;11.536;2024-01-15T01:12:25;14.77;;;6.90;;
3815;SDS011;1923;48.154;11.536;2024-01-15T01:14:54;18.43;;;7.47;;
3815;SDS011;1923;48.154;11.536;2024-01-15T01:17:23;15.87;;;7.50;;
3815;SDS011;1923;48.154;11.536;2024-01-15T01:19:51;20.33;;;7.70;;
3815;SDS011;1923;48.154;11.536;2024-01-15T01:22:19;13.47;;;7.13;;
3815;SDS011;1923;48.154;11.536;2024-01-15T01:24:47;15.40;;;7.23;;
3815;SDS011;1923;48.154;11.536;2024-01-15T01:27:15;17.67;;;8.13;;
3815;SDS011;1923;48.154;11.536;2024-01-15T01:29:43;14.23;;;7.80;;
3815;SDS011;1923;48.154;11.536;2024-01-15T01:32:12;14.33;;;6.80;;
3815;SDS011;1923;48.154;11.536;2024-01-15T01:34:41;13.83;;;7.40;;
3815;SDS011;1923;48.154;11.536;2024-01-15T01:37:09;15.20;;;7.23;;
3815;SDS011;1923;48.154;11.536;2024-01-15T01:39:39;13.90;;;7.47;;
3815;SDS011;1923;48.154;11.536;2024-01-15T01:42:08;11.53;;;6.00;;
3815;SDS011;1923;48.154;11.536;2024-01-15T01:44:36;15.13;;;7.50;;
3815;SDS011;1923;48.154;11.536;2024-01-15T01:47:06;15.43;;;6.47;;
3815;SDS011;1923;48.154;11.536;2024-01-15T01:49:34;12.00;;;7.00;;
3815;SDS011;1923;48.154;11.536;2024-01-15T01:52:06;11.90;;;7.07;;
3815;SDS011;1923;48.154;11.536;2024-01-15T01:54:34;11.90;;;5.60;;
3815;SDS011;1923;48.154;11.536;2024-01-15T01:57:04;8.47;;;5.33;;
3815;SDS011;1923;48.154;11.536;2024-01-15T01:59:33;11.40;;;6.50;;
3815;SDS011;1923;48.154;11.536;2024-01-15T02:02:03;13.10;;;6.07;;
3815;SDS011;1923;48.154;11.536;2024-01-15T02:04:32;9.23;;;5.20;;
3815;SDS011;1923;48.154;11.536;2024-01-15T02:07:01;13.47;;;5.90;;
3815;SDS011;1923;48.154;11.536;2024-01-15T02:09:32;12.40;;;6.20;;
3815;SDS011;1923;48.154;11.536;2024-01-15T02:12:00;9.73;;;5.70;;
3815;SDS011;1923;48.154;11.536;2024-01-15T02:14:28;15.50;;;5.80;;
3815;SDS011;1923;48.154;11.536;2024-01-15T02:16:56;9.10;;;5.37;;
3815;SDS011;1923;48.154;11.536;2024-01-15T02:19:24;14.10;;;6.33;;
3815;SDS011;1923;48.154;11.536;2024-01-15T02:21:53;12.53;;;5.87;;
3815;SDS011;1923;48.154;11.536;2024-01-15T02:24:22;11.82;;;5.85;;
3815;SDS011;1923;48.154;11.536;2024-01-15T02:26:50;11.93;;;5.70;;
3815;SDS011;1923;48.154;11.536;2024-01-15T02:29:19;12.70;;;5.90;;
3815;SDS011;1923;48.154;11.536;2024-01-15T02:31:47;13.03;;;6.73;;
3815;SDS011;1923;48.154;11.536;2024-01-15T02:34:15;10.98;;;5.70;;
3815;SDS011;1923;48.154;11.536;2024-01-15T02:36:43;13.07;;;6.33;;
3815;SDS011;1923;48.154;11.536;2024-01-15T02:39:12;9.57;;;5.87;;
3815;SDS011;1923;48.154;11.536;2024-01-15T02:41:41;11.00;;;6.30;;
3815;SDS011;1923;48.154;11.536;2024-01-15T02:44:09;15.90;;;6.27;;
3815;SDS011;1923;48.154;11.536;2024-01-15T02:46:37;14.83;;;6.77;;
3815;SDS011;1923;48.154;11.536;2024-01-15T02:49:05;11.33;;;5.50;;
3815;SDS011;1923;48.154;11.536;2024-01-15T02:51:33;15.30;;;6.20;;
3815;SDS011;1923;48.154;11.536;2024-01-15T02:54:02;11.67;;;6.00;;
3815;SDS011;1923;48.154;11.536;2024-01-15T02:56:30;12.50;;;6.10;;
3815;SDS011;1923;48.154;11.536;2024-01-15T02:58:59;13.67;;;6.30;;
3815;SDS011;1923;48.154;11.536;2024-01-15T03:01:27;14.50;;;6.93;;
3815;SDS011;1923;48.154;11.536;2024-01-15T03:03:55;12.00;;;6.70;;
3815;SDS011;1923;48.154;11.536;2024-01-15T03:06:24;14.20;;;7.67;;
3815;SDS011;1923;48.154;11.536;2024-01-15T03:08:52;10.83;;;6.40;;
3815;SDS011;1923;48.154;11.536;2024-01-15T03:11:20;10.63;;;6.10;;
3815;SDS011;1923;48.154;11.536;2024-01-15T03:13:48;11.50;;;5.90;;
3815;SDS011;1923;48.154;11.536;2024-01-15T03:16:17;13.83;;;6.70;;
3815;SDS011;1923;48.154;11.536;2024-01-15T03:18:46;11.30;;;6.30;;
3815;SDS011;1923;48.154;11.536;2024-01-15T03:21:15;15.43;;;6.30;;
3815;SDS011;1923;48.154;11.536;2024-01-15T03:23:43;11.00;;;5.80;;
3815;SDS011;1923;48.154;11.536;2024-01-15T03:26:11;12.67;;;6.53;;
3815;SDS011;1923;48.154;11.536;2024-01-15T03:28:39;11.03;;;6.23;;
3815;SDS011;1923;48.154;11.536;2024-01-15T03:31:07;10.93;;;5.33;;
3815;SDS011;1923;48.154;11.536;2024-01-15T03:33:36;11.37;;;6.47;;
3815;SDS011;1923;48.154;11.536;2024-01-15T03:36:05;12.83;;;5.60;;
3815;SDS011;1923;48.154;11.536;2024-01-15T03:38:34;10.07;;;5.40;;
3815;SDS011;1923;48.154;11.536;2024-01-15T03:41:07;11.00;;;6.03;;
3815;SDS011;1923;48.154;11.536;2024-01-15T03:43:35;15.87;;;6.77;;
3815;SDS011;1923;48.154;11.536;2024-01-15T03:46:03;10.70;;;5.33;;
3815;SDS011;1923;48.154;11.536;2024-01-15T03:48:31;8.97;;;5.00;;
3815;SDS011;1923;48.154;11.536;2024-01-15T03:51:02;13.30;;;6.60;;
3815;SDS011;1923;48.154;11.536;2024-01-15T03:53:30;13.60;;;5.40;;
3815;SDS011;1923;48.154;11.536;2024-01-15T03:55:58;12.30;;;5.50;;
3815;SDS011;1923;48.154;11.536;2024-01-15T03:58:27;14.00;;;7.00;;
3815;SDS011;1923;48.154;11.536;2024-01-15T04:00:54;10.10;;;5.43;;
3815;SDS011;1923;48.154;11.536;2024-01-15T04:03:23;11.37;;;5.60;;
3815;SDS011;1923;48.154;11.536;2024-01-15T04:05:51;17.30;;;6.33;;
3815;SDS011;1923;48.154;11.536;2024-01-15T04:08:20;11.43;;;6.53;;
3815;SDS011;1923;48.154;11.536;2024-01-15T04:10:48;11.80;;;5.87;;
3815;SDS011;1923;48.154;11.536;2024-01-15T04:13:17;11.77;;;5.77;;
3815;SDS011;1923;48.154;11.536;2024-01-15T04:15:44;11.90;;;6.33;;
3815;SDS011;1923;48.154;11.536;2024-01-15T04:18:13;10.67;;;5.53;;
3815;SDS011;1923;48.154;11.536;2024-01-15T04:20:41;12.50;;;6.37;;
3815;SDS011;1923;48.154;11.536;2024-01-15T04:23:09;10.30;;;5.90;;
3815;SDS011;1923;48.154;11.536;2024-01-15T04:25:38;11.23;;;5.50;;
3815;SDS011;1923;48.154;11.536;2024-01-15T04:28:09;10.80;;;6.10;;
3815;SDS011;1923;48.154;11.536;2024-01-15T04:30:37;12.20;;;5.60;;
3815;SDS011;1923;48.154;11.536;2024-01-15T04:33:05;10.00;;;5.60;;
3815;SDS011;1923;48.154;11.536;2024-01-15T04:35:33;11.20;;;5.53;;
3815;SDS011;1923;48.154;11.536;2024-01-15T04:38:01;10.43;;;5.50;;
3815;SDS011;1923;48.154;11.536;2024-01-15T04:40:29;9.53;;;4.80;;
3815;SDS011;1923;48.154;11.536;2024-01-15T04:42:59;19.07;;;10.30;;
3815;SDS011;1923;48.154;11.536;2024-01-15T04:45:27;11.50;;;5.83;;
3815;SDS011;1923;48.154;11.536;2024-01-15T04:47:56;8.00;;;5.00;;
3815;SDS011;1923;48.154;11.536;2024-01-15T04:50:24;12.80;;;5.60;;
3815;SDS011;1923;48.154;11.536;2024-01-15T04:52:52;9.90;;;5.33;;
3815;SDS011;1923;48.154;11.536;2024-01-15T04:55:20;14.90;;;5.70;;
3815;SDS011;1923;48.154;11.536;2024-01-15T04:57:48;11.27;;;5.57;;
3815;SDS011;1923;48.154;11.536;2024-01-15T05:00:18;11.40;;;5.13;;
3815;SDS011;1923;48.154;11.536;2024-01-15T05:02:46;12.23;;;4.93;;
3815;SDS011;1923;48.154;11.536;2024-01-15T05:05:14;6.57;;;4.23;;
3815;SDS011;1923;48.154;11.536;2024-01-15T05:07:42;10.53;;;4.97;;
3815;SDS011;1923;48.154;11.536;2024-01-15T05:10:10;11.67;;;5.57;;
3815;SDS011;1923;48.154;11.536;2024-01-15T05:12:38;9.30;;;5.27;;
3815;SDS011;1923;48.154;11.536;2024-01-15T05:15:07;9.60;;;5.10;;
3815;SDS011;1923;48.154;11.536;2024-01-15T05:17:37;9.80;;;5.20;;
3815;SDS011;1923;48.154;11.536;2024-01-15T05:20:06;8.93;;;5.40;;
3815;SDS011;1923;48.154;11.536;2024-01-15T05:22:34;8.60;;;4.97;;
3815;SDS011;1923;48.154;11.536;2024-01-15T05:25:02;8.67;;;5.30;;
3815;SDS011;1923;48.154;11.536;2024-01-15T05:27:31;9.20;;;4.80;;
3815;SDS011;1923;48.154;11.536;2024-01-15T05:29:59;10.40;;;5.20;;
3815;SDS011;1923;48.154;11.536;2024-01-15T05:32:28;10.87;;;4.90;;
3815;SDS011;1923;48.154;11.536;2024-01-15T05:34:57;9.53;;;5.23;;
3815;SDS011;1923;48.154;11.536;2024-01-15T05:37:26;8.50;;;5.17;;
3815;SDS011;1923;48.154;11.536;2024-01-15T05:39:54;10.17;;;5.40;;
3815;SDS011;1923;48.154;11.536;2024-01-15T05:42:22;10.20;;;6.13;;
3815;SDS011;1923;48.154;11.536;2024-01-15T05:44:50;8.47;;;4.57;;
3815;SDS011;1923;48.154;11.536;2024-01-15T05:47:18;9.47;;;4.90;;
3815;SDS011;1923;48.154;11.536;2024-01-15T05:49:46;9.47;;;4.80;;
3815;SDS011;1923;48.154;11.536;2024-01-15T05:52:15;9.30;;;5.03;;
3815;SDS011;1923;48.154;11.536;2024-01-15T05:54:43;13.20;;;4.90;;
3815;SDS011;1923;48.154;11.536;2024-01-15T05:57:12;9.80;;;5.70;;
3815;SDS011;1923;48.154;11.536;2024-01-15T05:59:40;10.00;;;5.23;;
3815;SDS011;1923;48.154;11.536;2024-01-15T06:02:08;12.53;;;5.90;;
3815;SDS011;1923;48.154;11.536;2024-01-15T06:04:36;17.73;;;6.77;;
3815;SDS011;1923;48.154;11.536;2024-01-15T06:07:04;8.43;;;5.07;;
3815;SDS011;1923;48.154;11.536;2024-01-15T06:09:33;7.90;;;4.90;;
3815;SDS011;1923;48.154;11.536;2024-01-15T06:12:02;10.70;;;4.70;;
3815;SDS011;1923;48.154;11.536;2024-01-15T06:14:30;12.37;;;4.70;;
3815;SDS011;1923;48.154;11.536;2024-01-15T06:16:58;9.60;;;5.20;;
3815;SDS011;1923;48.154;11.536;2024-01-15T06:19:26;9.40;;;4.60;;
3815;SDS011;1923;48.154;11.536;2024-01-15T06:21:54;11.40;;;4.57;;
3815;SDS011;1923;48.154;11.536;2024-01-15T06:24:22;9.90;;;4.63;;
3815;SDS011;1923;48.154;11.536;2024-01-15T06:26:52;9.33;;;4.73;;
3815;SDS011;1923;48.154;11.536;2024-01-15T06:29:20;13.23;;;4.97;;
3815;SDS011;1923;48.154;11.536;2024-01-15T06:31:48;9.30;;;4.83;;
3815;SDS011;1923;48.154;11.536;2024-01-15T06:34:17;10.33;;;5.90;;
3815;SDS011;1923;48.154;11.536;2024-01-15T06:36:46;9.00;;;4.40;;
3815;SDS011;1923;48.154;11.536;2024-01-15T06:39:14;9.33;;;4.87;;
3815;SDS011;1923;48.154;11.536;2024-01-15T06:41:42;8.50;;;5.17;;
3815;SDS011;1923;48.154;11.536;2024-01-15T06:44:12;7.37;;;4.50;;
3815;SDS011;1923;48.154;11.536;2024-01-15T06:46:41;9.77;;;4.57;;
3815;SDS011;1923;48.154;11.536;2024-01-15T06:49:10;10.20;;;4.87;;
3815;SDS011;1923;48.154;11.536;2024-01-15T06:51:39;9.80;;;4.23;;
3815;SDS011;1923;48.154;11.536;2024-01-15T06:54:08;10.50;;;5.10;;
3815;SDS011;1923;48.154;11.536;2024-01-15T06:56:36;9.20;;;4.37;;
3815;SDS011;1923;48.154;11.536;2024-01-15T06:59:04;6.97;;;4.53;;
3815;SDS011;1923;48.154;11.536;2024-01-15T07:01:33;8.13;;;4.50;;
3815;SDS011;1923;48.154;11.536;2024-01-15T07:04:01;9.40;;;4.47;;
3815;SDS011;1923;48.154;11.536;2024-01-15T07:06:30;9.00;;;4.70;;
3815;SDS011;1923;48.154;11.536;2024-01-15T07:08:58;7.57;;;4.33;;
3815;SDS011;1923;48.154;11.536;2024-01-15T07:11:26;9.87;;;5.00;;
3815;SDS011;1923;48.154;11.536;2024-01-15T07:13:54;7.20;;;4.60;;
3815;SDS011;1923;48.154;11.536;2024-01-15T07:16:22;7.50;;;4.20;;
3815;SDS011;1923;48.154;11.536;2024-01-15T07:19:04;7.87;;;4.83;;
3815;SDS011;1923;48.154;11.536;2024-01-15T07:21:32;7.97;;;4.60;;
3815;SDS011;1923;48.154;11.536;2024-01-15T07:24:01;10.70;;;5.10;;
3815;SDS011;1923;48.154;11.536;2024-01-15T07:26:29;9.00;;;4.80;;
3815;SDS011;1923;48.154;11.536;2024-01-15T07:28:57;12.10;;;5.23;;
3815;SDS011;1923;48.154;11.536;2024-01-15T07:31:26;11.43;;;5.27;;
3815;SDS011;1923;48.154;11.536;2024-01-15T07:33:55;10.73;;;5.30;;
3815;SDS011;1923;48.154;11.536;2024-01-15T07:36:24;10.07;;;4.70;;
3815;SDS011;1923;48.154;11.536;2024-01-15T07:38:52;8.83;;;5.30;;
3815;SDS011;1923;48.154;11.536;2024-01-15T07:41:20;6.57;;;4.17;;
3815;SDS011;1923;48.154;11.536;2024-01-15T07:43:49;10.33;;;4.70;;
3815;SDS011;1923;48.154;11.536;2024-01-15T07:46:18;8.10;;;4.73;;
3815;SDS011;1923;48.154;11.536;2024-01-15T07:48:45;9.73;;;5.20;;
3815;SDS011;1923;48.154;11.536;2024-01-15T07:51:14;11.60;;;5.20;;
3815;SDS011;1923;48.154;11.536;2024-01-15T07:53:43;9.73;;;4.93;;
3815;SDS011;1923;48.154;11.536;2024-01-15T07:56:11;11.63;;;5.00;;
3815;SDS011;1923;48.154;11.536;2024-01-15T07:58:40;9.67;;;5.13;;
3815;SDS011;1923;48.154;11.536;2024-01-15T08:01:08;12.87;;;5.60;;
3815;SDS011;1923;48.154;11.536;2024-01-15T08:03:36;13.97;;;5.10;;
3815;SDS011;1923;48.154;11.536;2024-01-15T08:06:05;10.43;;;5.43;;
3815;SDS011;1923;48.154;11.536;2024-01-15T08:08:36;12.50;;;5.40;;
3815;SDS011;1923;48.154;11.536;2024-01-15T08:11:06;10.33;;;4.80;;
3815;SDS011;1923;48.154;11.536;2024-01-15T08:13:34;12.27;;;5.30;;
3815;SDS011;1923;48.154;11.536;2024-01-15T08:16:03;11.93;;;5.27;;
3815;SDS011;1923;48.154;11.536;2024-01-15T08:18:31;8.27;;;4.77;;
3815;SDS011;1923;48.154;11.536;2024-01-15T08:20:59;16.40;;;6.27;;
3815;SDS011;1923;48.154;11.536;2024-01-15T08:23:29;12.47;;;5.00;;
3815;SDS011;1923;48.154;11.536;2024-01-15T08:25:57;9.60;;;4.80;;
3815;SDS011;1923;48.154;11.536;2024-01-15T08:28:27;13.33;;;5.43;;
3815;SDS011;1923;48.154;11.536;2024-01-15T08:30:55;9.30;;;5.10;;
3815;SDS011;1923;48.154;11.536;2024-01-15T08:33:23;13.00;;;4.50;;
3815;SDS011;1923;48.154;11.536;2024-01-15T08:35:52;15.87;;;5.60;;
3815;SDS011;1923;48.154;11.536;2024-01-15T08:38:20;9.33;;;4.90;;
3815;SDS011;1923;48.154;11.536;2024-01-15T08:40:48;7.63;;;4.20;;
3815;SDS011;1923;48.154;11.536;2024-01-15T08:43:17;6.30;;;3.50;;
3815;SDS011;1923;48.154;11.536;2024-01-15T08:45:46;6.37;;;3.73;;
3815;SDS011;1923;48.154;11.536;2024-01-15T08:48:15;8.40;;;4.20;;
3815;SDS011;1923;48.154;11.536;2024-01-15T08:50:43;10.73;;;4.00;;
3815;SDS011;1923;48.154;11.536;2024-01-15T08:53:12;9.80;;;4.60;;
3815;SDS011;1923;48.154;11.536;2024-01-15T08:55:40;10.53;;;4.90;;
3815;SDS011;1923;48.154;11.536;2024-01-15T08:58:10;8.97;;;4.10;;
3815;SDS011;1923;48.154;11.536;2024-01-15T09:00:38;10.00;;;4.70;;
3815;SDS011;1923;48.154;11.536;2024-01-15T09:03:08;11.40;;;4.77;;
3815;SDS011;1923;48.154;11.536;2024-01-15T09:05:36;8.87;;;4.90;;
3815;SDS011;1923;48.154;11.536;2024-01-15T09:08:05;12.30;;;5.00;;
3815;SDS011;1923;48.154;11.536;2024-01-15T09:10:33;10.10;;;5.37;;
3815;SDS011;1923;48.154;11.536;2024-01-15T09:13:01;10.40;;;5.03;;
3815;SDS011;1923;48.154;11.536;2024-01-15T09:15:30;9.33;;;5.03;;
3815;SDS011;1923;48.154;11.536;2024-01-15T09:17:58;8.13;;;5.20;;
3815;SDS011;1923;48.154;11.536;2024-01-15T09:20:34;13.77;;;6.07;;
3815;SDS011;1923;48.154;11.536;2024-01-15T09:23:03;10.80;;;5.07;;
3815;SDS011;1923;48.154;11.536;2024-01-15T09:25:32;7.60;;;4.37;;
3815;SDS011;1923;48.154;11.536;2024-01-15T09:28:00;11.70;;;5.20;;
3815;SDS011;1923;48.154;11.536;2024-01-15T09:30:28;9.57;;;5.50;;
3815;SDS011;1923;48.154;11.536;2024-01-15T09:32:56;8.23;;;4.30;;
3815;SDS011;1923;48.154;11.536;2024-01-15T09:35:25;9.10;;;4.70;;
3815;SDS011;1923;48.154;11.536;2024-01-15T09:37:54;7.47;;;4.40;;
3815;SDS011;1923;48.154;11.536;2024-01-15T09:40:22;10.13;;;4.77;;
3815;SDS011;1923;48.154;11.536;2024-01-15T09:42:52;10.10;;;5.87;;
3815;SDS011;1923;48.154;11.536;2024-01-15T09:45:21;9.90;;;4.63;;
3815;SDS011;1923;48.154;11.536;2024-01-15T09:47:49;8.75;;;4.10;;
3815;SDS011;1923;48.154;11.536;2024-01-15T09:50:18;9.98;;;5.30;;
3815;SDS011;1923;48.154;11.536;2024-01-15T09:52:46;10.10;;;5.20;;
3815;SDS011;1923;48.154;11.536;2024-01-15T09:55:18;8.67;;;4.10;;
3815;SDS011;1923;48.154;11.536;2024-01-15T09:57:46;8.10;;;3.90;;
3815;SDS011;1923;48.154;11.536;2024-01-15T10:00:15;6.83;;;4.00;;
3815;SDS011;1923;48.154;11.536;2024-01-15T10:02:45;7.28;;;3.65;;
3815;SDS011;1923;48.154;11.536;2024-01-15T10:05:13;5.80;;;3.13;;
3815;SDS011;1923;48.154;11.536;2024-01-15T10:07:42;6.60;;;3.60;;
3815;SDS011;1923;48.154;11.536;2024-01-15T10:10:11;6.00;;;3.57;;
3815;SDS011;1923;48.154;11.536;2024-01-15T10:12:40;7.00;;;3.40;;
3815;SDS011;1923;48.154;11.536;2024-01-15T10:15:10;8.53;;;4.17;;
3815;SDS011;1923;48.154;11.536;2024-01-15T10:17:39;7.97;;;3.80;;
3815;SDS011;1923;48.154;11.536;2024-01-15T10:20:09;6.05;;;3.78;;
3815;SDS011;1923;48.154;11.536;2024-01-15T10:22:39;8.13;;;3.80;;
3815;SDS011;1923;48.154;11.536;2024-01-15T10:25:11;8.17;;;3.97;;
3815;SDS011;1923;48.154;11.536;2024-01-15T10:27:41;8.70;;;3.90;;
3815;SDS011;1923;48.154;11.536;2024-01-15T10:30:10;7.05;;;3.45;;
3815;SDS011;1923;48.154;11.536;2024-01-15T10:32:41;7.70;;;3.40;;
3815;SDS011;1923;48.154;11.536;2024-01-15T10:35:09;6.80;;;3.83;;
3815;SDS011;1923;48.154;11.536;2024-01-15T10:37:41;8.00;;;3.40;;
3815;SDS011;1923;48.154;11.536;2024-01-15T10:40:09;5.63;;;3.50;;
3815;SDS011;1923;48.154;11.536;2024-01-15T10:42:38;6.13;;;3.22;;
3815;SDS011;1923;48.154;11.536;2024-01-15T10:45:07;5.33;;;3.30;;
3815;SDS011;1923;48.154;11.536;2024-01-15T10:47:36;8.70;;;3.80;;
3815;SDS011;1923;48.154;11.536;2024-01-15T10:50:05;8.30;;;3.30;;
3815;SDS011;1923;48.154;11.536;2024-01-15T10:52:34;6.00;;;3.20;;
3815;SDS011;1923;48.154;11.536;2024-01-15T10:55:03;5.70;;;3.20;;
3815;SDS011;1923;48.154;11.536;2024-01-15T10:57:45;5.73;;;3.33;;
3815;SDS011;1923;48.154;11.536;2024-01-15T11:00:18;8.87;;;3.80;;
3815;SDS011;1923;48.154;11.536;2024-01-15T11:02:46;6.50;;;3.10;;
3815;SDS011;1923;48.154;11.536;2024-01-15T11:05:14;7.90;;;3.90;;
3815;SDS011;1923;48.154;11.536;2024-01-15T11:07:44;8.00;;;3.67;;
3815;SDS011;1923;48.154;11.536;2024-01-15T11:13:09;8.90;;;4.10;;
3815;SDS011;1923;48.154;11.536;2024-01-15T11:18:27;7.37;;;3.23;;
3815;SDS011;1923;48.154;11.536;2024-01-15T11:23:48;7.00;;;3.20;;
3815;SDS011;1923;48.154;11.536;2024-01-15T11:26:30;5.20;;;3.20;;
3815;SDS011;1923;48.154;11.536;2024-01-15T11:29:02;5.50;;;2.95;;
3815;SDS011;1923;48.154;11.536;2024-01-15T11:34:52;6.82;;;3.20;;
3815;SDS011;1923;48.154;11.536;2024-01-15T11:37:29;7.80;;;4.10;;
3815;SDS011;1923;48.154;11.536;2024-01-15T11:40:36;4.50;;;2.90;;
3815;SDS011;1923;48.154;11.536;2024-01-15T11:43:05;5.33;;;3.40;;
3815;SDS011;1923;48.154;11.536;2024-01-15T11:45:35;8.27;;;4.50;;
3815;SDS011;1923;48.154;11.536;2024-01-15T11:50:45;6.60;;;3.57;;
3815;SDS011;1923;48.154;11.536;2024-01-15T11:53:25;6.43;;;3.70;;
3815;SDS011;1923;48.154;11.536;2024-01-15T11:55:57;9.17;;;4.37;;
3815;SDS011;1923;48.154;11.536;2024-01-15T11:58:26;9.10;;;3.50;;
3815;SDS011;1923;48.154;11.536;2024-01-15T12:00:54;6.70;;;3.53;;
3815;SDS011;1923;48.154;11.536;2024-01-15T12:03:24;7.27;;;3.63;;
3815;SDS011;1923;48.154;11.536;2024-01-15T12:05:52;6.00;;;3.30;;
3815;SDS011;1923;48.154;11.536;2024-01-15T12:08:21;4.50;;;3.07;;
3815;SDS011;1923;48.154;11.536;2024-01-15T12:10:50;5.13;;;3.30;;
3815;SDS011;1923;48.154;11.536;2024-01-15T12:13:18;6.30;;;2.90;;
3815;SDS011;1923;48.154;11.536;2024-01-15T12:15:47;4.63;;;2.60;;
3815;SDS011;1923;48.154;11.536;2024-01-15T12:18:17;5.60;;;3.13;;
3815;SDS011;1923;48.154;11.536;2024-01-15T12:20:47;6.20;;;3.00;;
3815;SDS011;1923;48.154;11.536;2024-01-15T12:23:16;4.60;;;3.63;;
3815;SDS011;1923;48.154;11.536;2024-01-15T12:25:44;10.40;;;2.73;;
3815;SDS011;1923;48.154;11.536;2024-01-15T12:28:13;5.33;;;3.20;;
3815;SDS011;1923;48.154;11.536;2024-01-15T12:30:46;6.20;;;3.00;;
3815;SDS011;1923;48.154;11.536;2024-01-15T12:33:17;5.97;;;3.03;;
3815;SDS011;1923;48.154;11.536;2024-01-15T12:35:48;4.90;;;2.33;;
3815;SDS011;1923;48.154;11.536;2024-01-15T12:38:18;4.87;;;2.90;;
3815;SDS011;1923;48.154;11.536;2024-01-15T12:40:46;5.50;;;2.80;;
3815;SDS011;1923;48.154;11.536;2024-01-15T12:43:16;5.53;;;2.77;;
3815;SDS011;1923;48.154;11.536;2024-01-15T12:45:45;6.00;;;2.73;;
3815;SDS011;1923;48.154;11.536;2024-01-15T12:48:14;3.77;;;2.70;;
3815;SDS011;1923;48.154;11.536;2024-01-15T12:50:44;5.00;;;2.40;;
3815;SDS011;1923;48.154;11.536;2024-01-15T12:53:15;8.47;;;2.70;;
3815;SDS011;1923;48.154;11.536;2024-01-15T12:55:44;7.00;;;4.00;;
3815;SDS011;1923;48.154;11.536;2024-01-15T12:58:12;4.90;;;3.03;;
3815;SDS011;1923;48.154;11.536;2024-01-15T13:00:41;6.43;;;2.87;;
3815;SDS011;1923;48.154;11.536;2024-01-15T13:03:09;4.20;;;2.42;;
3815;SDS011;1923;48.154;11.536;2024-01-15T13:05:37;5.30;;;2.80;;
3815;SDS011;1923;48.154;11.536;2024-01-15T13:08:07;5.43;;;3.50;;
3815;SDS011;1923;48.154;11.536;2024-01-15T13:10:37;5.80;;;3.40;;
3815;SDS011;1923;48.154;11.536;2024-01-15T13:13:05;3.97;;;2.63;;
3815;SDS011;1923;48.154;11.536;2024-01-15T13:15:33;5.27;;;2.93;;
3815;SDS011;1923;48.154;11.536;2024-01-15T13:18:03;4.90;;;2.37;;
3815;SDS011;1923;48.154;11.536;2024-01-15T13:20:32;3.83;;;2.67;;
3815;SDS011;1923;48.154;11.536;2024-01-15T13:23:00;4.67;;;2.60;;
3815;SDS011;1923;48.154;11.536;2024-01-15T13:25:30;3.97;;;2.10;;
3815;SDS011;1923;48.154;11.536;2024-01-15T13:27:59;3.30;;;2.47;;
3815;SDS011;1923;48.154;11.536;2024-01-15T13:30:29;8.30;;;3.30;;
3815;SDS011;1923;48.154;11.536;2024-01-15T13:32:57;5.10;;;2.40;;
3815;SDS011;1923;48.154;11.536;2024-01-15T13:35:30;5.90;;;2.93;;
3815;SDS011;1923;48.154;11.536;2024-01-15T13:37:58;9.07;;;3.17;;
3815;SDS011;1923;48.154;11.536;2024-01-15T13:40:26;6.80;;;2.80;;
3815;SDS011;1923;48.154;11.536;2024-01-15T13:42:54;4.83;;;3.20;;
3815;SDS011;1923;48.154;11.536;2024-01-15T13:45:24;5.60;;;3.10;;
3815;SDS011;1923;48.154;11.536;2024-01-15T13:47:52;7.37;;;3.20;;
3815;SDS011;1923;48.154;11.536;2024-01-15T13:50:20;5.20;;;3.40;;
3815;SDS011;1923;48.154;11.536;2024-01-15T13:52:51;8.10;;;3.60;;
3815;SDS011;1923;48.154;11.536;2024-01-15T13:55:19;5.33;;;3.43;;
3815;SDS011;1923;48.154;11.536;2024-01-15T13:57:47;5.07;;;3.20;;
3815;SDS011;1923;48.154;11.536;2024-01-15T14:00:15;9.00;;;3.17;;
3815;SDS011;1923;48.154;11.536;2024-01-15T14:02:47;7.00;;;3.20;;
3815;SDS011;1923;48.154;11.536;2024-01-15T14:05:15;7.20;;;3.60;;
3815;SDS011;1923;48.154;11.536;2024-01-15T14:07:44;6.60;;;3.50;;
3815;SDS011;1923;48.154;11.536;2024-01-15T14:10:12;6.70;;;3.13;;
3815;SDS011;1923;48.154;11.536;2024-01-15T14:12:40;6.93;;;3.13;;
3815;SDS011;1923;48.154;11.536;2024-01-15T14:15:08;7.97;;;3.60;;
3815;SDS011;1923;48.154;11.536;2024-01-15T14:17:37;4.13;;;3.10;;
3815;SDS011;1923;48.154;11.536;2024-01-15T14:20:07;7.88;;;3.10;;
3815;SDS011;1923;48.154;11.536;2024-01-15T14:22:36;7.00;;;3.80;;
3815;SDS011;1923;48.154;11.536;2024-01-15T14:25:04;6.87;;;3.80;;
3815;SDS011;1923;48.154;11.536;2024-01-15T14:27:33;7.00;;;3.33;;
3815;SDS011;1923;48.154;11.536;2024-01-15T14:30:01;5.50;;;3.10;;
3815;SDS011;1923;48.154;11.536;2024-01-15T14:32:29;5.03;;;3.33;;
3815;SDS011;1923;48.154;11.536;2024-01-15T14:34:57;5.70;;;2.93;;
3815;SDS011;1923;48.154;11.536;2024-01-15T14:37:28;8.57;;;4.00;;
3815;SDS011;1923;48.154;11.536;2024-01-15T14:39:56;5.40;;;3.33;;
3815;SDS011;1923;48.154;11.536;2024-01-15T14:42:24;5.83;;;3.33;;
3815;SDS011;1923;48.154;11.536;2024-01-15T14:44:52;6.63;;;3.73;;
3815;SDS011;1923;48.154;11.536;2024-01-15T14:47:20;6.32;;;2.92;;
3815;SDS011;1923;48.154;11.536;2024-01-15T14:49:50;6.57;;;3.00;;
3815;SDS011;1923;48.154;11.536;2024-01-15T14:52:18;6.17;;;3.00;;
3815;SDS011;1923;48.154;11.536;2024-01-15T14:54:48;9.70;;;3.40;;
3815;SDS011;1923;48.154;11.536;2024-01-15T14:57:17;8.97;;;3.33;;
3815;SDS011;1923;48.154;11.536;2024-01-15T14:59:45;8.17;;;3.87;;
3815;SDS011;1923;48.154;11.536;2024-01-15T15:02:13;9.40;;;4.10;;
3815;SDS011;1923;48.154;11.536;2024-01-15T15:04:42;4.73;;;3.07;;
3815;SDS011;1923;48.154;11.536;2024-01-15T15:07:14;5.40;;;3.77;;
3815;SDS011;1923;48.154;11.536;2024-01-15T15:09:43;4.90;;;2.93;;
3815;SDS011;1923;48.154;11.536;2024-01-15T15:12:12;6.90;;;3.20;;
3815;SDS011;1923;48.154;11.536;2024-01-15T15:14:41;5.43;;;2.60;;
3815;SDS011;1923;48.154;11.536;2024-01-15T15:17:25;4.17;;;2.73;;
3815;SDS011;1923;48.154;11.536;2024-01-15T15:19:53;5.47;;;3.13;;